createdAt,value
2022-11-13T00:01:13.345Z,8.95
2022-11-13T00:03:40.255Z,8.85
2022-11-13T00:06:07.395Z,8.88
2022-11-13T00:08:34.504Z,16.20
2022-11-13T00:11:10.032Z,14.30
2022-11-13T00:13:37.051Z,8.43
2022-11-13T00:16:07.017Z,8.30
2022-11-13T00:18:37.519Z,7.75
2022-11-13T00:21:09.846Z,12.75
2022-11-13T00:23:36.970Z,31.73
2022-11-13T00:26:16.480Z,13.95
2022-11-13T00:28:43.539Z,9.02
2022-11-13T00:31:12.431Z,11.98
2022-11-13T00:34:05.226Z,18.75
2022-11-13T00:36:27.830Z,14.52
2022-11-13T00:38:55.385Z,14.13
2022-11-13T00:41:23.222Z,20.88
2022-11-13T00:43:50.394Z,19.65
2022-11-13T00:46:17.147Z,11.23
2022-11-13T00:48:43.811Z,13.02
2022-11-13T00:51:10.676Z,9.05
2022-11-13T00:53:37.402Z,9.73
2022-11-13T00:56:04.468Z,8.52
2022-11-13T00:58:31.458Z,11.90
2022-11-13T01:01:06.155Z,14.95
2022-11-13T01:03:33.002Z,22.35
2022-11-13T01:06:00.045Z,8.95
2022-11-13T01:08:27.314Z,29.13
2022-11-13T01:10:54.272Z,17.75
2022-11-13T01:13:20.934Z,14.88
2022-11-13T01:15:47.610Z,12.48
2022-11-13T01:18:14.279Z,13.93
2022-11-13T01:20:41.197Z,19.00
2022-11-13T01:23:08.291Z,9.48
2022-11-13T01:25:35.152Z,10.75
2022-11-13T01:28:01.821Z,15.65
2022-11-13T01:30:28.512Z,28.23
2022-11-13T01:32:55.176Z,15.20
2022-11-13T01:35:21.867Z,15.18
2022-11-13T01:37:48.519Z,10.52
2022-11-13T01:40:16.631Z,16.35
2022-11-13T01:42:43.287Z,12.32
2022-11-13T01:45:48.731Z,14.68
2022-11-13T01:50:42.131Z,23.15
2022-11-13T01:53:09.118Z,9.95
2022-11-13T01:55:36.382Z,17.58
2022-11-13T01:58:05.960Z,14.88
2022-11-13T02:00:32.622Z,11.43
2022-11-13T02:02:59.286Z,10.65
2022-11-13T02:05:26.017Z,11.02
2022-11-13T02:07:52.702Z,13.57
2022-11-13T02:10:19.434Z,13.00
2022-11-13T02:12:51.832Z,10.98
2022-11-13T02:15:23.611Z,10.15
2022-11-13T02:17:59.071Z,11.70
2022-11-13T02:20:45.184Z,18.75
2022-11-13T02:23:44.030Z,12.23
2022-11-13T02:26:11.991Z,11.00
2022-11-13T02:28:39.066Z,9.70
2022-11-13T02:31:07.973Z,12.13
2022-11-13T02:33:35.205Z,12.63
2022-11-13T02:36:02.983Z,20.60
2022-11-13T02:38:30.563Z,15.95
2022-11-13T02:40:57.610Z,13.60
2022-11-13T02:43:24.385Z,13.25
2022-11-13T02:45:51.122Z,9.60
2022-11-13T02:48:17.850Z,11.93
2022-11-13T02:50:45.050Z,9.65
2022-11-13T02:53:11.851Z,9.30
2022-11-13T02:55:38.626Z,9.65
2022-11-13T02:58:05.537Z,8.27
2022-11-13T03:00:32.286Z,8.75
2022-11-13T03:02:59.005Z,9.82
2022-11-13T03:05:25.762Z,10.30
2022-11-13T03:07:52.531Z,8.90
2022-11-13T03:10:19.313Z,11.18
2022-11-13T03:12:46.246Z,10.10
2022-11-13T03:15:13.000Z,16.67
2022-11-13T03:17:39.778Z,10.70
2022-11-13T03:20:06.773Z,10.32
2022-11-13T03:22:33.577Z,12.07
2022-11-13T03:25:00.293Z,10.82
2022-11-13T03:27:26.988Z,27.55
2022-11-13T03:29:53.770Z,33.05
2022-11-13T03:32:20.592Z,13.98
2022-11-13T03:34:47.292Z,14.50
2022-11-13T03:37:14.023Z,12.27
2022-11-13T03:39:40.712Z,10.82
2022-11-13T03:42:07.509Z,10.27
2022-11-13T03:44:34.185Z,9.55
2022-11-13T03:47:00.896Z,10.18
2022-11-13T03:49:27.604Z,11.32
2022-11-13T03:51:54.490Z,49.08
2022-11-13T03:54:21.183Z,10.88
2022-11-13T03:56:47.925Z,9.57
2022-11-13T03:59:14.639Z,17.73
2022-11-13T04:01:41.363Z,10.88
2022-11-13T04:04:08.206Z,24.40
2022-11-13T04:06:35.046Z,9.88
2022-11-13T04:09:01.890Z,20.77
2022-11-13T04:11:28.613Z,10.48
2022-11-13T04:13:55.310Z,12.25
2022-11-13T04:16:22.012Z,9.25
2022-11-13T04:18:48.772Z,10.82
2022-11-13T04:21:15.515Z,8.80
2022-11-13T04:23:42.286Z,8.10
2022-11-13T04:26:09.018Z,7.90
2022-11-13T04:28:35.736Z,9.73
2022-11-13T04:31:02.445Z,10.25
2022-11-13T04:33:29.189Z,8.80
2022-11-13T04:35:55.966Z,8.05
2022-11-13T04:38:22.669Z,10.95
2022-11-13T04:40:51.536Z,8.05
2022-11-13T04:43:18.295Z,19.80
2022-11-13T04:45:45.017Z,8.80
2022-11-13T04:48:12.311Z,8.18
2022-11-13T04:50:39.023Z,11.35
2022-11-13T04:53:05.728Z,9.63
2022-11-13T04:55:32.436Z,8.98
2022-11-13T04:57:59.186Z,12.35
2022-11-13T05:00:25.887Z,8.65
2022-11-13T05:02:52.641Z,8.98
2022-11-13T05:05:19.534Z,8.45
2022-11-13T05:07:46.219Z,12.10
2022-11-13T05:10:13.083Z,9.98
2022-11-13T05:12:39.849Z,10.85
2022-11-13T05:15:07.178Z,8.35
2022-11-13T05:17:33.931Z,9.38
2022-11-13T05:20:00.751Z,7.50
2022-11-13T05:22:27.540Z,7.32
2022-11-13T05:24:54.258Z,7.85
2022-11-13T05:27:20.957Z,8.05
2022-11-13T05:29:47.724Z,8.20
2022-11-13T05:32:14.437Z,13.60
2022-11-13T05:34:41.142Z,7.30
2022-11-13T05:37:07.873Z,9.90
2022-11-13T05:39:34.656Z,7.57
2022-11-13T05:42:01.341Z,14.32
2022-11-13T05:44:28.075Z,7.00
2022-11-13T05:46:54.784Z,6.95
2022-11-13T05:49:21.479Z,7.72
2022-11-13T05:51:48.189Z,7.30
2022-11-13T05:54:14.950Z,9.02
2022-11-13T05:56:41.719Z,7.68
2022-11-13T05:59:08.651Z,15.50
2022-11-13T06:01:38.772Z,8.25
2022-11-13T06:04:07.423Z,9.35
2022-11-13T06:06:34.636Z,8.90
2022-11-13T06:09:03.760Z,9.48
2022-11-13T06:11:31.016Z,7.55
2022-11-13T06:13:59.162Z,7.78
2022-11-13T06:16:33.933Z,6.72
2022-11-13T06:19:03.536Z,9.40
2022-11-13T06:21:32.759Z,9.93
2022-11-13T06:24:01.209Z,7.85
2022-11-13T06:26:31.656Z,7.53
2022-11-13T06:28:59.828Z,9.35
2022-11-13T06:31:32.928Z,7.32
2022-11-13T06:34:00.486Z,7.18
2022-11-13T06:36:29.700Z,7.47
2022-11-13T06:38:56.426Z,10.68
2022-11-13T06:41:26.651Z,8.70
2022-11-13T06:43:54.398Z,8.55
2022-11-13T06:46:24.910Z,7.75
2022-11-13T06:48:52.301Z,8.57
2022-11-13T06:51:27.984Z,9.88
2022-11-13T06:53:55.066Z,8.32
2022-11-13T06:56:22.271Z,8.57
2022-11-13T06:58:49.119Z,7.80
2022-11-13T07:01:21.341Z,6.50
2022-11-13T07:03:48.570Z,7.63
2022-11-13T07:06:17.997Z,8.32
2022-11-13T07:08:45.733Z,8.80
2022-11-13T07:11:23.111Z,6.72
2022-11-13T07:13:50.511Z,7.22
2022-11-13T07:16:18.416Z,7.38
2022-11-13T07:18:55.018Z,8.20
2022-11-13T07:21:22.612Z,7.32
2022-11-13T07:23:50.471Z,12.55
2022-11-13T07:26:17.756Z,7.43
2022-11-13T07:28:45.179Z,6.95
2022-11-13T07:31:13.579Z,9.73
2022-11-13T07:33:40.625Z,7.93
2022-11-13T07:36:08.449Z,9.05
2022-11-13T07:38:35.873Z,9.30
2022-11-13T07:41:02.998Z,9.57
2022-11-13T07:43:29.802Z,9.98
2022-11-13T07:45:59.265Z,11.40
2022-11-13T07:48:28.127Z,9.65
2022-11-13T07:50:55.514Z,10.25
2022-11-13T07:53:23.185Z,7.85
2022-11-13T07:55:50.078Z,8.07
2022-11-13T07:58:16.883Z,8.20
2022-11-13T08:00:43.996Z,8.82
2022-11-13T08:03:15.786Z,7.82
2022-11-13T08:05:43.435Z,8.20
2022-11-13T08:08:14.844Z,10.85
2022-11-13T08:10:42.203Z,8.88
2022-11-13T08:13:10.447Z,8.50
2022-11-13T08:15:37.796Z,9.15
2022-11-13T08:18:05.312Z,8.63
2022-11-13T08:20:32.557Z,8.20
2022-11-13T08:23:01.499Z,9.88
2022-11-13T08:25:29.596Z,8.63
2022-11-13T08:27:56.835Z,9.55
2022-11-13T08:30:26.114Z,10.25
2022-11-13T08:32:52.930Z,13.40
2022-11-13T08:35:22.901Z,11.73
2022-11-13T08:37:52.192Z,11.27
2022-11-13T08:40:19.430Z,9.88
2022-11-13T08:42:46.229Z,10.85
2022-11-13T08:45:13.391Z,10.05
2022-11-13T08:47:40.128Z,11.85
2022-11-13T08:50:07.626Z,10.02
2022-11-13T08:52:34.362Z,8.10
2022-11-13T08:55:01.162Z,9.40
2022-11-13T08:57:27.966Z,11.82
2022-11-13T08:59:54.702Z,11.15
2022-11-13T09:02:21.473Z,10.40
2022-11-13T09:04:48.281Z,11.27
2022-11-13T09:07:15.124Z,8.35
2022-11-13T09:09:41.891Z,7.50
2022-11-13T09:12:09.142Z,8.00
2022-11-13T09:14:36.789Z,6.90
2022-11-13T09:17:03.556Z,7.78
2022-11-13T09:19:30.297Z,7.47
2022-11-13T09:21:57.046Z,7.63
2022-11-13T09:24:23.865Z,7.65
2022-11-13T09:26:50.782Z,9.43
2022-11-13T09:29:18.498Z,7.97
2022-11-13T09:31:46.205Z,9.10
2022-11-13T09:34:13.087Z,11.18
2022-11-13T09:36:40.196Z,10.98
2022-11-13T09:39:07.286Z,9.88
2022-11-13T09:41:39.739Z,8.77
2022-11-13T09:44:17.553Z,8.60
2022-11-13T09:46:52.761Z,8.45
2022-11-13T09:49:34.714Z,8.70
2022-11-13T09:52:06.847Z,9.10
2022-11-13T09:54:34.045Z,9.57
2022-11-13T09:57:25.998Z,7.93
2022-11-13T10:00:11.267Z,9.20
2022-11-13T10:02:57.666Z,9.15
2022-11-13T10:05:35.855Z,11.07
2022-11-13T10:08:34.828Z,9.80
2022-11-13T10:11:23.533Z,9.00
2022-11-13T10:13:54.258Z,7.63
2022-11-13T10:16:38.160Z,7.45
2022-11-13T10:19:26.112Z,5.90
2022-11-13T10:22:32.292Z,8.07
2022-11-13T10:25:12.077Z,9.45
2022-11-13T10:27:39.384Z,8.95
2022-11-13T10:30:14.574Z,12.00
2022-11-13T10:32:41.564Z,11.23
2022-11-13T10:35:17.282Z,10.48
2022-11-13T10:38:08.947Z,9.10
2022-11-13T10:40:38.669Z,9.80
2022-11-13T10:43:15.066Z,9.82
2022-11-13T10:45:53.080Z,9.93
2022-11-13T10:48:31.707Z,10.43
2022-11-13T10:51:02.293Z,15.82
2022-11-13T10:53:41.324Z,12.95
2022-11-13T10:56:27.985Z,13.52
2022-11-13T10:59:18.742Z,10.02
2022-11-13T11:01:47.173Z,10.23
2022-11-13T11:04:19.790Z,12.25
2022-11-13T11:07:18.396Z,13.48
2022-11-13T11:09:39.059Z,14.57
2022-11-13T11:12:24.289Z,14.30
2022-11-13T11:14:57.286Z,14.10
2022-11-13T11:17:27.914Z,14.18
2022-11-13T11:20:30.630Z,14.23
2022-11-13T11:23:28.890Z,16.13
2022-11-13T11:26:04.057Z,12.93
2022-11-13T11:28:44.864Z,15.15
2022-11-13T11:31:35.775Z,13.32
2022-11-13T11:34:14.571Z,13.30
2022-11-13T11:37:00.450Z,12.18
2022-11-13T11:39:55.070Z,11.63
2022-11-13T11:42:59.861Z,12.18
2022-11-13T11:45:40.484Z,12.60
2022-11-13T11:48:13.328Z,11.25
2022-11-13T11:50:46.429Z,11.05
2022-11-13T11:53:19.146Z,10.23
2022-11-13T11:56:30.086Z,11.15
2022-11-13T11:59:12.712Z,9.70
2022-11-13T12:01:59.694Z,10.98
2022-11-13T12:04:51.456Z,12.48
2022-11-13T12:07:33.610Z,11.63
2022-11-13T12:10:26.770Z,10.73
2022-11-13T12:12:59.666Z,12.45
2022-11-13T12:15:44.685Z,13.98
2022-11-13T12:18:36.042Z,14.15
2022-11-13T12:21:08.775Z,12.52
2022-11-13T12:24:03.476Z,10.63
2022-11-13T12:26:57.549Z,12.25
2022-11-13T12:29:38.082Z,10.68
2022-11-13T12:32:22.981Z,11.02
2022-11-13T12:34:58.348Z,10.80
2022-11-13T12:37:52.007Z,9.30
2022-11-13T12:40:31.556Z,9.85
2022-11-13T12:43:16.992Z,8.75
2022-11-13T12:45:57.896Z,8.30
2022-11-13T12:48:35.064Z,8.63
2022-11-13T12:51:21.094Z,9.35
2022-11-13T12:53:54.729Z,9.80
2022-11-13T12:56:24.685Z,9.17
2022-11-13T12:59:28.572Z,9.70
2022-11-13T13:02:20.734Z,10.18
2022-11-13T13:04:53.562Z,9.45
2022-11-13T13:07:32.217Z,10.10
2022-11-13T13:10:12.260Z,9.68
2022-11-13T13:13:08.299Z,10.40
2022-11-13T13:15:49.039Z,9.68
2022-11-13T13:18:18.819Z,9.20
2022-11-13T13:21:06.648Z,9.88
2022-11-13T13:23:36.573Z,13.60
2022-11-13T13:26:27.966Z,11.10
2022-11-13T13:28:56.656Z,9.98
2022-11-13T13:31:44.992Z,8.45
2022-11-13T13:35:01.860Z,11.38
2022-11-13T13:37:51.916Z,9.32
2022-11-13T13:40:29.890Z,9.40
2022-11-13T13:43:30.219Z,10.55
2022-11-13T13:46:24.639Z,9.75
2022-11-13T13:48:55.063Z,9.60
2022-11-13T13:51:42.217Z,10.63
2022-11-13T13:54:12.475Z,11.23
2022-11-13T13:56:42.718Z,9.43
2022-11-13T13:59:21.906Z,10.05
2022-11-13T14:02:00.306Z,10.00
2022-11-13T14:04:29.440Z,10.85
2022-11-13T14:07:01.130Z,9.55
2022-11-13T14:09:30.740Z,10.30
2022-11-13T14:12:09.014Z,9.73
2022-11-13T14:14:39.423Z,10.52
2022-11-13T14:17:07.032Z,14.27
2022-11-13T14:19:33.810Z,9.57
2022-11-13T14:22:03.259Z,12.50
2022-11-13T14:24:34.453Z,9.30
2022-11-13T14:27:08.549Z,10.23
2022-11-13T14:29:37.614Z,9.77
2022-11-13T14:32:15.936Z,10.18
2022-11-13T14:34:47.118Z,10.07
2022-11-13T14:37:26.015Z,10.75
2022-11-13T14:39:54.305Z,10.13
2022-11-13T14:42:39.239Z,11.60
2022-11-13T14:45:16.452Z,10.70
2022-11-13T14:47:44.127Z,12.15
2022-11-13T14:50:38.081Z,11.48
2022-11-13T14:53:08.070Z,9.38
2022-11-13T14:55:38.864Z,11.00
2022-11-13T14:58:05.901Z,10.52
2022-11-13T15:00:35.466Z,12.25
2022-11-13T15:03:06.064Z,10.95
2022-11-13T15:05:33.221Z,13.30
2022-11-13T15:08:00.525Z,12.57
2022-11-13T15:10:29.308Z,11.68
2022-11-13T15:12:56.141Z,12.25
2022-11-13T15:15:27.235Z,12.23
2022-11-13T15:17:54.200Z,13.93
2022-11-13T15:20:25.350Z,11.35
2022-11-13T15:22:52.818Z,11.68
2022-11-13T15:25:23.896Z,11.80
2022-11-13T15:27:50.998Z,11.07
2022-11-13T15:30:18.701Z,11.43
2022-11-13T15:32:45.979Z,12.50
2022-11-13T15:35:20.124Z,11.90
2022-11-13T15:37:47.823Z,12.45
2022-11-13T15:40:14.807Z,18.00
2022-11-13T15:42:44.202Z,11.27
2022-11-13T15:45:15.951Z,10.88
2022-11-13T15:47:42.773Z,11.30
2022-11-13T15:50:13.922Z,10.63
2022-11-13T15:52:45.178Z,10.98
2022-11-13T15:55:30.175Z,10.45
2022-11-13T15:57:58.397Z,11.32
2022-11-13T16:00:26.983Z,11.30
2022-11-13T16:02:56.042Z,11.18
2022-11-13T16:05:25.486Z,12.32
2022-11-13T16:07:53.819Z,11.05
2022-11-13T16:10:21.823Z,11.15
2022-11-13T16:12:48.864Z,15.02
2022-11-13T16:15:17.106Z,14.27
2022-11-13T16:17:49.436Z,14.75
2022-11-13T16:20:17.557Z,25.35
2022-11-13T16:22:44.856Z,23.00
2022-11-13T16:25:18.530Z,13.07
2022-11-13T16:27:46.060Z,11.18
2022-11-13T16:30:20.007Z,25.17
2022-11-13T16:32:47.562Z,13.38
2022-11-13T16:35:15.931Z,18.10
2022-11-13T16:37:43.174Z,14.88
2022-11-13T16:40:22.696Z,15.02
2022-11-13T16:42:49.730Z,14.85
2022-11-13T16:45:16.588Z,12.95
2022-11-13T16:47:43.700Z,13.15
2022-11-13T16:50:19.320Z,16.02
2022-11-13T16:52:46.142Z,16.13
2022-11-13T16:55:13.275Z,14.55
2022-11-13T16:57:40.469Z,16.25
2022-11-13T17:00:09.130Z,18.77
2022-11-13T17:02:35.878Z,14.27
2022-11-13T17:05:02.734Z,16.52
2022-11-13T17:07:29.535Z,17.90
2022-11-13T17:10:29.136Z,16.08
2022-11-13T17:12:53.874Z,14.40
2022-11-13T17:15:21.512Z,13.63
2022-11-13T17:17:48.218Z,14.82
2022-11-13T17:20:18.239Z,12.23
2022-11-13T17:22:48.460Z,13.05
2022-11-13T17:25:17.289Z,14.10
2022-11-13T17:27:44.208Z,19.15
2022-11-13T17:30:14.370Z,35.05
2022-11-13T17:32:41.389Z,21.70
2022-11-13T17:35:09.373Z,21.60
2022-11-13T17:37:36.125Z,15.43
2022-11-13T17:40:02.945Z,21.60
2022-11-13T17:42:29.791Z,17.90
2022-11-13T17:44:56.612Z,18.25
2022-11-13T17:47:23.434Z,22.88
2022-11-13T17:49:50.207Z,24.33
2022-11-13T17:52:17.035Z,21.60
2022-11-13T17:54:43.860Z,21.67
2022-11-13T17:57:11.466Z,15.25
2022-11-13T17:59:38.364Z,16.95
2022-11-13T18:02:05.241Z,14.35
2022-11-13T18:04:32.002Z,16.02
2022-11-13T18:06:58.789Z,14.35
2022-11-13T18:09:25.518Z,19.25
2022-11-13T18:11:52.272Z,18.55
2022-11-13T18:14:19.078Z,15.95
2022-11-13T18:16:46.192Z,18.08
2022-11-13T18:19:13.253Z,14.75
2022-11-13T18:21:40.736Z,15.07
2022-11-13T18:24:15.299Z,17.58
2022-11-13T18:29:09.219Z,25.92
2022-11-13T18:31:36.406Z,20.17
2022-11-13T18:34:04.886Z,17.23
2022-11-13T18:36:32.455Z,17.55
2022-11-13T18:39:02.854Z,16.65
2022-11-13T18:41:30.127Z,17.63
2022-11-13T18:43:57.077Z,20.33
2022-11-13T18:46:23.821Z,19.65
2022-11-13T18:48:50.674Z,19.67
2022-11-13T18:51:23.046Z,20.13
2022-11-13T18:53:51.178Z,16.40
2022-11-13T18:56:21.764Z,19.30
2022-11-13T18:58:50.587Z,20.20
2022-11-13T19:01:31.729Z,17.15
2022-11-13T19:06:52.395Z,15.00
2022-11-13T19:09:19.540Z,15.57
2022-11-13T19:11:46.335Z,15.60
2022-11-13T19:14:14.996Z,15.85
2022-11-13T19:16:41.854Z,17.48
2022-11-13T19:19:19.443Z,16.60
2022-11-13T19:21:46.570Z,17.33
2022-11-13T19:24:14.791Z,19.42
2022-11-13T19:26:42.965Z,21.38
2022-11-13T19:29:10.498Z,15.25
2022-11-13T19:31:37.231Z,17.95
2022-11-13T19:34:07.131Z,20.40
2022-11-13T19:36:34.762Z,16.13
2022-11-13T19:39:01.714Z,18.48
2022-11-13T19:41:29.623Z,18.02
2022-11-13T19:43:59.683Z,16.48
2022-11-13T19:46:26.511Z,17.50
2022-11-13T19:48:53.300Z,18.17
2022-11-13T19:51:25.260Z,16.80
2022-11-13T19:53:57.066Z,17.95
2022-11-13T19:56:25.304Z,20.17
2022-11-13T19:58:52.788Z,21.30
2022-11-13T20:01:22.160Z,23.42
2022-11-13T20:03:54.128Z,20.48
2022-11-13T20:06:20.882Z,16.50
2022-11-13T20:08:47.569Z,18.17
2022-11-13T20:11:15.196Z,17.02
2022-11-13T20:13:42.891Z,22.55
2022-11-13T20:16:11.624Z,19.65
2022-11-13T20:18:38.642Z,21.65
2022-11-13T20:21:05.853Z,22.13
2022-11-13T20:23:33.072Z,29.70
2022-11-13T20:26:02.250Z,34.35
2022-11-13T20:28:30.266Z,26.63
2022-11-13T20:31:05.001Z,17.10
2022-11-13T20:35:59.704Z,21.02
2022-11-13T20:38:26.625Z,20.10
2022-11-13T20:40:53.600Z,25.27
2022-11-13T20:43:20.475Z,18.02
2022-11-13T20:45:47.193Z,23.02
2022-11-13T20:48:14.258Z,18.58
2022-11-13T20:50:41.064Z,19.33
2022-11-13T20:53:07.916Z,20.15
2022-11-13T20:55:34.659Z,26.88
2022-11-13T20:58:01.354Z,18.63
2022-11-13T21:00:28.136Z,17.75
2022-11-13T21:02:54.854Z,21.83
2022-11-13T21:05:21.561Z,18.02
2022-11-13T21:07:48.261Z,17.55
2022-11-13T21:10:15.386Z,17.50
2022-11-13T21:12:42.211Z,16.77
2022-11-13T21:15:09.152Z,21.40
2022-11-13T21:17:36.582Z,18.63
2022-11-13T21:20:04.924Z,16.63
2022-11-13T21:22:31.854Z,17.35
2022-11-13T21:24:58.633Z,17.65
2022-11-13T21:27:25.393Z,17.20
2022-11-13T21:29:52.073Z,19.70
2022-11-13T21:32:19.683Z,19.73
2022-11-13T21:34:46.645Z,15.77
2022-11-13T21:37:14.450Z,20.95
2022-11-13T21:39:41.209Z,17.02
2022-11-13T21:42:08.017Z,16.75
2022-11-13T21:44:34.733Z,15.82
2022-11-13T21:47:01.466Z,15.90
2022-11-13T21:49:28.426Z,15.80
2022-11-13T21:51:55.126Z,16.13
2022-11-13T21:54:22.141Z,14.68
2022-11-13T21:56:48.830Z,16.50
2022-11-13T21:59:15.533Z,16.55
2022-11-13T22:01:42.298Z,16.73
2022-11-13T22:04:09.057Z,14.93
2022-11-13T22:06:36.614Z,15.25
2022-11-13T22:09:25.188Z,16.60
2022-11-13T22:11:52.324Z,15.25
2022-11-13T22:14:19.030Z,15.40
2022-11-13T22:16:47.315Z,16.00
2022-11-13T22:19:16.898Z,17.15
2022-11-13T22:21:44.709Z,15.50
2022-11-13T22:24:12.686Z,15.68
2022-11-13T22:26:41.856Z,16.92
2022-11-13T22:29:08.923Z,16.58
2022-11-13T22:31:36.717Z,15.43
2022-11-13T22:34:04.266Z,16.58
2022-11-13T22:36:34.112Z,17.42
2022-11-13T22:39:01.769Z,17.88
2022-11-13T22:41:32.222Z,15.85
2022-11-13T22:44:02.966Z,18.83
2022-11-13T22:46:32.080Z,17.05
2022-11-13T22:49:03.727Z,18.30
2022-11-13T22:51:37.951Z,18.15
2022-11-13T22:54:09.892Z,17.77
2022-11-13T22:56:39.184Z,19.25
2022-11-13T22:59:07.497Z,28.00
2022-11-13T23:01:36.563Z,19.58
2022-11-13T23:04:05.730Z,20.13
2022-11-13T23:06:34.798Z,18.42
2022-11-13T23:09:01.927Z,20.02
2022-11-13T23:11:30.202Z,18.67
2022-11-13T23:13:59.019Z,19.30
2022-11-13T23:16:27.078Z,21.63
2022-11-13T23:18:55.684Z,22.20
2022-11-13T23:21:23.413Z,19.92
2022-11-13T23:23:50.116Z,18.75
2022-11-13T23:26:17.468Z,18.65
2022-11-13T23:28:44.599Z,20.00
2022-11-13T23:31:11.775Z,19.50
2022-11-13T23:33:38.847Z,21.45
2022-11-13T23:36:06.894Z,19.10
2022-11-13T23:38:33.637Z,19.08
2022-11-13T23:41:01.145Z,20.70
2022-11-13T23:44:01.666Z,24.05
2022-11-13T23:46:17.109Z,18.33
2022-11-13T23:48:43.811Z,19.73
2022-11-13T23:51:10.623Z,20.33
2022-11-13T23:53:37.313Z,19.38
2022-11-13T23:56:04.522Z,20.38
2022-11-13T23:58:32.654Z,20.45
